sensor_id;sensor_type;location;lat;lon;timestamp;P1;durP1;ratioP1;P2;durP2;ratioP2
18853;SDS011;9556;49.374;19.446;2022-07-12T00:02:07;4.30;;;2.23;;
18853;SDS011;9556;49.374;19.446;2022-07-12T00:04:34;3.07;;;1.90;;
18853;SDS011;9556;49.374;19.446;2022-07-12T00:07:02;3.60;;;1.73;;
18853;SDS011;9556;49.374;19.446;2022-07-12T00:09:30;5.67;;;1.97;;
18853;SDS011;9556;49.374;19.446;2022-07-12T00:11:57;4.83;;;2.10;;
18853;SDS011;9556;49.374;19.446;2022-07-12T00:14:24;2.80;;;1.87;;
18853;SDS011;9556;49.374;19.446;2022-07-12T00:16:51;7.17;;;2.00;;
18853;SDS011;9556;49.374;19.446;2022-07-12T00:19:18;3.60;;;1.93;;
18853;SDS011;9556;49.374;19.446;2022-07-12T00:21:46;3.53;;;1.70;;
18853;SDS011;9556;49.374;19.446;2022-07-12T00:24:14;4.67;;;1.83;;
18853;SDS011;9556;49.374;19.446;2022-07-12T00:26:41;2.40;;;1.80;;
18853;SDS011;9556;49.374;19.446;2022-07-12T00:29:08;2.17;;;1.70;;
18853;SDS011;9556;49.374;19.446;2022-07-12T00:31:36;4.07;;;1.67;;
18853;SDS011;9556;49.374;19.446;2022-07-12T00:34:03;5.83;;;2.10;;
18853;SDS011;9556;49.374;19.446;2022-07-12T00:36:30;7.87;;;1.93;;
18853;SDS011;9556;49.374;19.446;2022-07-12T00:38:57;3.70;;;1.67;;
18853;SDS011;9556;49.374;19.446;2022-07-12T00:41:25;5.33;;;1.93;;
18853;SDS011;9556;49.374;19.446;2022-07-12T00:43:53;3.63;;;1.90;;
18853;SDS011;9556;49.374;19.446;2022-07-12T00:46:22;5.10;;;2.00;;
18853;SDS011;9556;49.374;19.446;2022-07-12T00:48:49;2.93;;;2.00;;
18853;SDS011;9556;49.374;19.446;2022-07-12T00:51:16;5.33;;;2.30;;
18853;SDS011;9556;49.374;19.446;2022-07-12T00:53:43;6.57;;;1.90;;
18853;SDS011;9556;49.374;19.446;2022-07-12T00:56:11;4.67;;;1.93;;
18853;SDS011;9556;49.374;19.446;2022-07-12T00:58:40;2.83;;;1.83;;
18853;SDS011;9556;49.374;19.446;2022-07-12T01:01:08;3.40;;;1.83;;
18853;SDS011;9556;49.374;19.446;2022-07-12T01:03:35;3.17;;;2.00;;
18853;SDS011;9556;49.374;19.446;2022-07-12T01:06:03;3.27;;;1.97;;
18853;SDS011;9556;49.374;19.446;2022-07-12T01:08:31;8.80;;;2.20;;
18853;SDS011;9556;49.374;19.446;2022-07-12T01:10:59;3.00;;;1.90;;
18853;SDS011;9556;49.374;19.446;2022-07-12T01:13:26;3.40;;;1.93;;
18853;SDS011;9556;49.374;19.446;2022-07-12T01:15:55;2.67;;;1.80;;
18853;SDS011;9556;49.374;19.446;2022-07-12T01:18:22;3.83;;;1.90;;
18853;SDS011;9556;49.374;19.446;2022-07-12T01:20:50;2.60;;;2.10;;
18853;SDS011;9556;49.374;19.446;2022-07-12T01:23:19;4.77;;;2.37;;
18853;SDS011;9556;49.374;19.446;2022-07-12T01:25:47;5.53;;;2.03;;
18853;SDS011;9556;49.374;19.446;2022-07-12T01:28:14;3.37;;;2.13;;
18853;SDS011;9556;49.374;19.446;2022-07-12T01:30:41;3.43;;;2.20;;
18853;SDS011;9556;49.374;19.446;2022-07-12T01:33:08;3.17;;;2.20;;
18853;SDS011;9556;49.374;19.446;2022-07-12T01:35:35;5.23;;;2.40;;
18853;SDS011;9556;49.374;19.446;2022-07-12T01:38:03;7.63;;;2.50;;
18853;SDS011;9556;49.374;19.446;2022-07-12T01:40:31;3.03;;;2.00;;
18853;SDS011;9556;49.374;19.446;2022-07-12T01:43:00;7.83;;;2.73;;
18853;SDS011;9556;49.374;19.446;2022-07-12T01:45:28;4.20;;;2.70;;
18853;SDS011;9556;49.374;19.446;2022-07-12T01:47:55;4.77;;;2.90;;
18853;SDS011;9556;49.374;19.446;2022-07-12T01:50:24;3.60;;;2.40;;
18853;SDS011;9556;49.374;19.446;2022-07-12T01:52:51;3.50;;;2.73;;
18853;SDS011;9556;49.374;19.446;2022-07-12T01:55:19;6.67;;;3.20;;
18853;SDS011;9556;49.374;19.446;2022-07-12T01:57:47;4.57;;;2.63;;
18853;SDS011;9556;49.374;19.446;2022-07-12T02:00:15;3.97;;;2.60;;
18853;SDS011;9556;49.374;19.446;2022-07-12T02:02:44;5.57;;;2.63;;
18853;SDS011;9556;49.374;19.446;2022-07-12T02:05:12;5.37;;;2.73;;
18853;SDS011;9556;49.374;19.446;2022-07-12T02:07:40;5.30;;;2.80;;
18853;SDS011;9556;49.374;19.446;2022-07-12T02:10:07;4.87;;;2.80;;
18853;SDS011;9556;49.374;19.446;2022-07-12T02:12:35;5.17;;;3.03;;
18853;SDS011;9556;49.374;19.446;2022-07-12T02:15:04;6.30;;;3.10;;
18853;SDS011;9556;49.374;19.446;2022-07-12T02:17:31;4.33;;;3.03;;
18853;SDS011;9556;49.374;19.446;2022-07-12T02:19:58;6.13;;;3.20;;
18853;SDS011;9556;49.374;19.446;2022-07-12T02:22:25;5.17;;;3.20;;
18853;SDS011;9556;49.374;19.446;2022-07-12T02:24:52;6.60;;;3.67;;
18853;SDS011;9556;49.374;19.446;2022-07-12T02:27:20;5.83;;;3.10;;
18853;SDS011;9556;49.374;19.446;2022-07-12T02:29:47;6.10;;;2.90;;
18853;SDS011;9556;49.374;19.446;2022-07-12T02:32:15;5.60;;;2.93;;
18853;SDS011;9556;49.374;19.446;2022-07-12T02:34:42;4.87;;;2.97;;
18853;SDS011;9556;49.374;19.446;2022-07-12T02:37:09;4.93;;;2.77;;
18853;SDS011;9556;49.374;19.446;2022-07-12T02:39:36;8.13;;;3.40;;
18853;SDS011;9556;49.374;19.446;2022-07-12T02:42:04;4.60;;;3.13;;
18853;SDS011;9556;49.374;19.446;2022-07-12T02:44:31;4.53;;;3.33;;
18853;SDS011;9556;49.374;19.446;2022-07-12T02:46:59;10.37;;;3.30;;
18853;SDS011;9556;49.374;19.446;2022-07-12T02:49:27;3.87;;;2.70;;
18853;SDS011;9556;49.374;19.446;2022-07-12T02:51:54;5.93;;;2.93;;
18853;SDS011;9556;49.374;19.446;2022-07-12T02:54:21;5.10;;;2.70;;
18853;SDS011;9556;49.374;19.446;2022-07-12T02:56:48;6.10;;;2.87;;
18853;SDS011;9556;49.374;19.446;2022-07-12T02:59:15;3.70;;;2.97;;
18853;SDS011;9556;49.374;19.446;2022-07-12T03:01:43;6.57;;;2.70;;
18853;SDS011;9556;49.374;19.446;2022-07-12T03:04:10;5.07;;;2.97;;
18853;SDS011;9556;49.374;19.446;2022-07-12T03:06:38;5.63;;;3.10;;
18853;SDS011;9556;49.374;19.446;2022-07-12T03:09:05;4.40;;;3.20;;
18853;SDS011;9556;49.374;19.446;2022-07-12T03:11:32;5.07;;;2.97;;
18853;SDS011;9556;49.374;19.446;2022-07-12T03:13:59;5.27;;;3.20;;
18853;SDS011;9556;49.374;19.446;2022-07-12T03:16:27;4.73;;;2.97;;
18853;SDS011;9556;49.374;19.446;2022-07-12T03:18:54;4.80;;;3.70;;
18853;SDS011;9556;49.374;19.446;2022-07-12T03:21:21;5.90;;;3.60;;
18853;SDS011;9556;49.374;19.446;2022-07-12T03:23:49;6.23;;;3.60;;
18853;SDS011;9556;49.374;19.446;2022-07-12T03:26:16;6.50;;;3.90;;
18853;SDS011;9556;49.374;19.446;2022-07-12T03:28:43;6.17;;;3.80;;
18853;SDS011;9556;49.374;19.446;2022-07-12T03:31:11;6.70;;;3.83;;
18853;SDS011;9556;49.374;19.446;2022-07-12T03:33:38;7.63;;;3.87;;
18853;SDS011;9556;49.374;19.446;2022-07-12T03:36:06;4.87;;;3.57;;
18853;SDS011;9556;49.374;19.446;2022-07-12T03:38:33;6.60;;;3.30;;
18853;SDS011;9556;49.374;19.446;2022-07-12T03:41:03;8.27;;;3.63;;
18853;SDS011;9556;49.374;19.446;2022-07-12T03:43:30;7.70;;;3.80;;
18853;SDS011;9556;49.374;19.446;2022-07-12T03:45:57;4.67;;;3.10;;
18853;SDS011;9556;49.374;19.446;2022-07-12T03:48:24;5.07;;;2.83;;
18853;SDS011;9556;49.374;19.446;2022-07-12T03:50:51;5.63;;;2.97;;
18853;SDS011;9556;49.374;19.446;2022-07-12T03:53:18;5.57;;;2.70;;
18853;SDS011;9556;49.374;19.446;2022-07-12T03:55:45;5.23;;;3.03;;
18853;SDS011;9556;49.374;19.446;2022-07-12T03:58:14;5.90;;;3.17;;
18853;SDS011;9556;49.374;19.446;2022-07-12T04:00:41;5.50;;;3.30;;
18853;SDS011;9556;49.374;19.446;2022-07-12T04:03:08;5.77;;;3.63;;
18853;SDS011;9556;49.374;19.446;2022-07-12T04:05:36;6.27;;;3.60;;
18853;SDS011;9556;49.374;19.446;2022-07-12T04:08:03;12.87;;;4.53;;
18853;SDS011;9556;49.374;19.446;2022-07-12T04:10:31;11.83;;;3.73;;
18853;SDS011;9556;49.374;19.446;2022-07-12T04:12:58;7.83;;;4.30;;
18853;SDS011;9556;49.374;19.446;2022-07-12T04:15:26;6.53;;;4.10;;
18853;SDS011;9556;49.374;19.446;2022-07-12T04:17:53;6.50;;;4.40;;
18853;SDS011;9556;49.374;19.446;2022-07-12T04:20:20;7.40;;;4.40;;
18853;SDS011;9556;49.374;19.446;2022-07-12T04:22:47;5.17;;;3.50;;
18853;SDS011;9556;49.374;19.446;2022-07-12T04:25:15;7.30;;;2.90;;
18853;SDS011;9556;49.374;19.446;2022-07-12T04:27:42;6.33;;;2.70;;
18853;SDS011;9556;49.374;19.446;2022-07-12T04:30:09;5.97;;;3.13;;
18853;SDS011;9556;49.374;19.446;2022-07-12T04:32:38;6.70;;;3.07;;
18853;SDS011;9556;49.374;19.446;2022-07-12T04:35:05;5.37;;;2.70;;
18853;SDS011;9556;49.374;19.446;2022-07-12T04:37:32;6.00;;;3.00;;
18853;SDS011;9556;49.374;19.446;2022-07-12T04:39:59;4.93;;;2.80;;
18853;SDS011;9556;49.374;19.446;2022-07-12T04:42:26;5.97;;;2.87;;
18853;SDS011;9556;49.374;19.446;2022-07-12T04:44:53;7.77;;;2.50;;
18853;SDS011;9556;49.374;19.446;2022-07-12T04:47:20;3.27;;;2.20;;
18853;SDS011;9556;49.374;19.446;2022-07-12T04:49:49;3.60;;;2.27;;
18853;SDS011;9556;49.374;19.446;2022-07-12T04:52:16;2.40;;;1.80;;
18853;SDS011;9556;49.374;19.446;2022-07-12T04:54:43;4.47;;;2.20;;
18853;SDS011;9556;49.374;19.446;2022-07-12T04:57:10;5.13;;;2.20;;
18853;SDS011;9556;49.374;19.446;2022-07-12T04:59:37;5.30;;;2.40;;
18853;SDS011;9556;49.374;19.446;2022-07-12T05:02:04;3.50;;;1.80;;
18853;SDS011;9556;49.374;19.446;2022-07-12T05:04:32;3.43;;;2.17;;
18853;SDS011;9556;49.374;19.446;2022-07-12T05:07:00;3.93;;;1.70;;
18853;SDS011;9556;49.374;19.446;2022-07-12T05:09:28;3.17;;;1.80;;
18853;SDS011;9556;49.374;19.446;2022-07-12T05:11:55;7.00;;;1.90;;
18853;SDS011;9556;49.374;19.446;2022-07-12T05:14:22;3.13;;;2.10;;
18853;SDS011;9556;49.374;19.446;2022-07-12T05:16:49;3.73;;;2.17;;
18853;SDS011;9556;49.374;19.446;2022-07-12T05:19:16;6.73;;;2.40;;
18853;SDS011;9556;49.374;19.446;2022-07-12T05:21:43;6.33;;;2.90;;
18853;SDS011;9556;49.374;19.446;2022-07-12T05:24:12;3.97;;;2.27;;
18853;SDS011;9556;49.374;19.446;2022-07-12T05:26:39;3.30;;;2.00;;
18853;SDS011;9556;49.374;19.446;2022-07-12T05:29:06;4.37;;;2.30;;
18853;SDS011;9556;49.374;19.446;2022-07-12T05:31:33;2.43;;;1.80;;
18853;SDS011;9556;49.374;19.446;2022-07-12T05:34:01;6.90;;;2.10;;
18853;SDS011;9556;49.374;19.446;2022-07-12T05:36:28;2.70;;;1.80;;
18853;SDS011;9556;49.374;19.446;2022-07-12T05:38:55;3.87;;;1.80;;
18853;SDS011;9556;49.374;19.446;2022-07-12T05:41:24;3.10;;;1.77;;
18853;SDS011;9556;49.374;19.446;2022-07-12T05:43:51;2.80;;;1.60;;
18853;SDS011;9556;49.374;19.446;2022-07-12T05:46:18;5.90;;;1.73;;
18853;SDS011;9556;49.374;19.446;2022-07-12T05:48:45;3.80;;;1.70;;
18853;SDS011;9556;49.374;19.446;2022-07-12T05:51:13;3.63;;;1.80;;
18853;SDS011;9556;49.374;19.446;2022-07-12T05:53:58;3.03;;;1.87;;
18853;SDS011;9556;49.374;19.446;2022-07-12T05:56:26;4.03;;;1.70;;
18853;SDS011;9556;49.374;19.446;2022-07-12T05:58:53;3.53;;;2.03;;
18853;SDS011;9556;49.374;19.446;2022-07-12T06:01:21;2.87;;;2.07;;
18853;SDS011;9556;49.374;19.446;2022-07-12T06:03:48;3.60;;;1.97;;
18853;SDS011;9556;49.374;19.446;2022-07-12T06:06:15;3.67;;;2.20;;
18853;SDS011;9556;49.374;19.446;2022-07-12T06:08:42;3.83;;;2.10;;
18853;SDS011;9556;49.374;19.446;2022-07-12T06:11:09;4.37;;;2.20;;
18853;SDS011;9556;49.374;19.446;2022-07-12T06:13:38;4.57;;;2.50;;
18853;SDS011;9556;49.374;19.446;2022-07-12T06:16:05;4.10;;;2.40;;
18853;SDS011;9556;49.374;19.446;2022-07-12T06:18:35;3.73;;;2.17;;
18853;SDS011;9556;49.374;19.446;2022-07-12T06:21:02;3.83;;;2.23;;
18853;SDS011;9556;49.374;19.446;2022-07-12T06:23:29;3.37;;;2.10;;
18853;SDS011;9556;49.374;19.446;2022-07-12T06:25:56;7.50;;;2.47;;
18853;SDS011;9556;49.374;19.446;2022-07-12T06:28:23;3.90;;;2.33;;
18853;SDS011;9556;49.374;19.446;2022-07-12T06:30:52;3.47;;;2.30;;
18853;SDS011;9556;49.374;19.446;2022-07-12T06:33:19;5.03;;;2.47;;
18853;SDS011;9556;49.374;19.446;2022-07-12T06:35:46;4.93;;;2.40;;
18853;SDS011;9556;49.374;19.446;2022-07-12T06:38:13;5.97;;;2.23;;
18853;SDS011;9556;49.374;19.446;2022-07-12T06:40:41;6.13;;;2.50;;
18853;SDS011;9556;49.374;19.446;2022-07-12T06:43:08;6.63;;;2.80;;
18853;SDS011;9556;49.374;19.446;2022-07-12T06:45:36;5.13;;;2.70;;
18853;SDS011;9556;49.374;19.446;2022-07-12T06:48:04;7.43;;;2.60;;
18853;SDS011;9556;49.374;19.446;2022-07-12T06:50:31;6.13;;;2.63;;
18853;SDS011;9556;49.374;19.446;2022-07-12T06:52:59;7.43;;;3.27;;
18853;SDS011;9556;49.374;19.446;2022-07-12T06:55:26;4.57;;;2.40;;
18853;SDS011;9556;49.374;19.446;2022-07-12T06:57:53;3.63;;;2.40;;
18853;SDS011;9556;49.374;19.446;2022-07-12T07:00:20;5.20;;;2.67;;
18853;SDS011;9556;49.374;19.446;2022-07-12T07:02:47;6.53;;;2.50;;
18853;SDS011;9556;49.374;19.446;2022-07-12T07:05:16;5.57;;;3.17;;
18853;SDS011;9556;49.374;19.446;2022-07-12T07:07:44;3.90;;;2.53;;
18853;SDS011;9556;49.374;19.446;2022-07-12T07:10:11;3.67;;;2.73;;
18853;SDS011;9556;49.374;19.446;2022-07-12T07:12:39;6.37;;;3.13;;
18853;SDS011;9556;49.374;19.446;2022-07-12T07:15:06;9.83;;;3.77;;
18853;SDS011;9556;49.374;19.446;2022-07-12T07:17:34;6.80;;;3.53;;
18853;SDS011;9556;49.374;19.446;2022-07-12T07:20:01;6.13;;;2.70;;
18853;SDS011;9556;49.374;19.446;2022-07-12T07:22:30;7.43;;;2.90;;
18853;SDS011;9556;49.374;19.446;2022-07-12T07:24:57;5.40;;;2.50;;
18853;SDS011;9556;49.374;19.446;2022-07-12T07:27:24;5.07;;;3.40;;
18853;SDS011;9556;49.374;19.446;2022-07-12T07:29:51;4.07;;;2.70;;
18853;SDS011;9556;49.374;19.446;2022-07-12T07:32:36;3.90;;;2.40;;
18853;SDS011;9556;49.374;19.446;2022-07-12T07:35:04;6.13;;;2.60;;
18853;SDS011;9556;49.374;19.446;2022-07-12T07:37:32;4.93;;;2.20;;
18853;SDS011;9556;49.374;19.446;2022-07-12T07:40:00;7.53;;;3.30;;
18853;SDS011;9556;49.374;19.446;2022-07-12T07:42:27;3.30;;;2.03;;
18853;SDS011;9556;49.374;19.446;2022-07-12T07:44:55;6.00;;;1.90;;
18853;SDS011;9556;49.374;19.446;2022-07-12T07:47:22;3.40;;;1.83;;
18853;SDS011;9556;49.374;19.446;2022-07-12T07:49:49;4.00;;;2.50;;
18853;SDS011;9556;49.374;19.446;2022-07-12T07:52:16;4.20;;;2.30;;
18853;SDS011;9556;49.374;19.446;2022-07-12T07:54:44;3.50;;;1.87;;
18853;SDS011;9556;49.374;19.446;2022-07-12T07:57:11;3.40;;;2.47;;
18853;SDS011;9556;49.374;19.446;2022-07-12T07:59:39;2.87;;;2.23;;
18853;SDS011;9556;49.374;19.446;2022-07-12T08:02:06;5.40;;;2.13;;
18853;SDS011;9556;49.374;19.446;2022-07-12T08:04:33;3.70;;;2.03;;
18853;SDS011;9556;49.374;19.446;2022-07-12T08:07:00;8.50;;;4.80;;
18853;SDS011;9556;49.374;19.446;2022-07-12T08:09:27;14.53;;;2.63;;
18853;SDS011;9556;49.374;19.446;2022-07-12T08:11:55;5.43;;;2.10;;
18853;SDS011;9556;49.374;19.446;2022-07-12T08:14:22;2.17;;;1.30;;
18853;SDS011;9556;49.374;19.446;2022-07-12T08:16:49;5.90;;;1.67;;
18853;SDS011;9556;49.374;19.446;2022-07-12T08:19:17;5.37;;;2.17;;
18853;SDS011;9556;49.374;19.446;2022-07-12T08:21:44;6.87;;;2.00;;
18853;SDS011;9556;49.374;19.446;2022-07-12T08:24:11;7.17;;;3.53;;
18853;SDS011;9556;49.374;19.446;2022-07-12T08:26:38;7.50;;;4.00;;
18853;SDS011;9556;49.374;19.446;2022-07-12T08:29:07;6.03;;;2.83;;
18853;SDS011;9556;49.374;19.446;2022-07-12T08:31:34;3.63;;;1.90;;
18853;SDS011;9556;49.374;19.446;2022-07-12T08:34:01;6.47;;;2.10;;
18853;SDS011;9556;49.374;19.446;2022-07-12T08:36:29;7.53;;;4.00;;
18853;SDS011;9556;49.374;19.446;2022-07-12T08:38:56;4.33;;;2.43;;
18853;SDS011;9556;49.374;19.446;2022-07-12T08:41:23;6.13;;;2.63;;
18853;SDS011;9556;49.374;19.446;2022-07-12T08:43:50;4.80;;;1.40;;
18853;SDS011;9556;49.374;19.446;2022-07-12T08:46:19;2.37;;;1.30;;
18853;SDS011;9556;49.374;19.446;2022-07-12T08:48:46;5.30;;;1.43;;
18853;SDS011;9556;49.374;19.446;2022-07-12T08:51:14;2.67;;;1.50;;
18853;SDS011;9556;49.374;19.446;2022-07-12T08:53:41;4.77;;;1.40;;
18853;SDS011;9556;49.374;19.446;2022-07-12T08:56:29;5.67;;;1.53;;
18853;SDS011;9556;49.374;19.446;2022-07-12T08:59:08;4.03;;;2.90;;
18853;SDS011;9556;49.374;19.446;2022-07-12T09:01:40;4.63;;;2.70;;
18853;SDS011;9556;49.374;19.446;2022-07-12T09:04:20;4.33;;;2.13;;
18853;SDS011;9556;49.374;19.446;2022-07-12T09:06:47;5.87;;;2.00;;
18853;SDS011;9556;49.374;19.446;2022-07-12T09:09:25;8.27;;;2.73;;
18853;SDS011;9556;49.374;19.446;2022-07-12T09:11:52;5.90;;;2.10;;
18853;SDS011;9556;49.374;19.446;2022-07-12T09:14:19;3.40;;;2.00;;
18853;SDS011;9556;49.374;19.446;2022-07-12T09:16:59;5.80;;;2.23;;
18853;SDS011;9556;49.374;19.446;2022-07-12T09:19:26;2.63;;;1.73;;
18853;SDS011;9556;49.374;19.446;2022-07-12T09:21:54;2.50;;;1.70;;
18853;SDS011;9556;49.374;19.446;2022-07-12T09:24:23;3.20;;;1.80;;
18853;SDS011;9556;49.374;19.446;2022-07-12T09:26:52;3.47;;;1.67;;
18853;SDS011;9556;49.374;19.446;2022-07-12T09:29:20;5.07;;;2.50;;
18853;SDS011;9556;49.374;19.446;2022-07-12T09:31:48;7.73;;;3.60;;
18853;SDS011;9556;49.374;19.446;2022-07-12T09:34:35;2.10;;;1.40;;
18853;SDS011;9556;49.374;19.446;2022-07-12T09:37:20;2.13;;;1.30;;
18853;SDS011;9556;49.374;19.446;2022-07-12T09:39:47;2.17;;;1.23;;
18853;SDS011;9556;49.374;19.446;2022-07-12T09:42:14;2.37;;;1.00;;
18853;SDS011;9556;49.374;19.446;2022-07-12T09:44:42;1.93;;;1.20;;
18853;SDS011;9556;49.374;19.446;2022-07-12T09:47:09;1.97;;;1.30;;
18853;SDS011;9556;49.374;19.446;2022-07-12T09:49:39;3.90;;;1.23;;
18853;SDS011;9556;49.374;19.446;2022-07-12T09:52:09;2.67;;;1.37;;
18853;SDS011;9556;49.374;19.446;2022-07-12T09:54:38;2.90;;;1.40;;
18853;SDS011;9556;49.374;19.446;2022-07-12T09:57:09;3.63;;;1.60;;
18853;SDS011;9556;49.374;19.446;2022-07-12T09:59:39;1.77;;;1.20;;
18853;SDS011;9556;49.374;19.446;2022-07-12T10:02:06;2.20;;;1.20;;
18853;SDS011;9556;49.374;19.446;2022-07-12T10:04:34;2.03;;;1.00;;
18853;SDS011;9556;49.374;19.446;2022-07-12T10:07:04;1.70;;;1.40;;
18853;SDS011;9556;49.374;19.446;2022-07-12T10:09:31;2.67;;;1.20;;
18853;SDS011;9556;49.374;19.446;2022-07-12T10:11:59;1.83;;;1.33;;
18853;SDS011;9556;49.374;19.446;2022-07-12T10:14:26;1.70;;;0.83;;
18853;SDS011;9556;49.374;19.446;2022-07-12T10:16:53;1.50;;;1.00;;
18853;SDS011;9556;49.374;19.446;2022-07-12T10:19:21;2.97;;;1.20;;
18853;SDS011;9556;49.374;19.446;2022-07-12T10:21:48;2.17;;;1.10;;
18853;SDS011;9556;49.374;19.446;2022-07-12T10:29:53;2.07;;;0.90;;
18853;SDS011;9556;49.374;19.446;2022-07-12T10:32:38;6.23;;;1.30;;
18853;SDS011;9556;49.374;19.446;2022-07-12T10:35:11;13.07;;;1.53;;
18853;SDS011;9556;49.374;19.446;2022-07-12T10:37:38;3.63;;;1.10;;
18853;SDS011;9556;49.374;19.446;2022-07-12T10:40:11;2.07;;;1.00;;
18853;SDS011;9556;49.374;19.446;2022-07-12T10:42:40;1.40;;;1.10;;
18853;SDS011;9556;49.374;19.446;2022-07-12T10:45:11;2.70;;;1.13;;
18853;SDS011;9556;49.374;19.446;2022-07-12T10:47:54;2.80;;;0.97;;
18853;SDS011;9556;49.374;19.446;2022-07-12T10:55:51;4.40;;;2.13;;
18853;SDS011;9556;49.374;19.446;2022-07-12T10:58:35;4.73;;;0.97;;
18853;SDS011;9556;49.374;19.446;2022-07-12T11:01:04;2.77;;;1.40;;
18853;SDS011;9556;49.374;19.446;2022-07-12T11:03:31;1.33;;;0.97;;
18853;SDS011;9556;49.374;19.446;2022-07-12T11:06:01;2.87;;;1.10;;
18853;SDS011;9556;49.374;19.446;2022-07-12T11:08:29;6.63;;;1.03;;
18853;SDS011;9556;49.374;19.446;2022-07-12T11:10:56;2.17;;;1.50;;
18853;SDS011;9556;49.374;19.446;2022-07-12T11:13:24;10.40;;;1.10;;
18853;SDS011;9556;49.374;19.446;2022-07-12T11:15:56;3.07;;;0.90;;
18853;SDS011;9556;49.374;19.446;2022-07-12T11:18:29;3.63;;;1.10;;
18853;SDS011;9556;49.374;19.446;2022-07-12T11:20:57;6.50;;;1.70;;
18853;SDS011;9556;49.374;19.446;2022-07-12T11:23:24;2.50;;;0.90;;
18853;SDS011;9556;49.374;19.446;2022-07-12T11:25:52;1.23;;;0.80;;
18853;SDS011;9556;49.374;19.446;2022-07-12T11:28:20;1.48;;;0.88;;
18853;SDS011;9556;49.374;19.446;2022-07-12T11:30:48;1.27;;;0.95;;
18853;SDS011;9556;49.374;19.446;2022-07-12T11:33:16;1.10;;;0.70;;
18853;SDS011;9556;49.374;19.446;2022-07-12T11:35:44;1.25;;;1.00;;
18853;SDS011;9556;49.374;19.446;2022-07-12T11:38:12;1.40;;;0.77;;
18853;SDS011;9556;49.374;19.446;2022-07-12T11:40:39;3.83;;;0.80;;
18853;SDS011;9556;49.374;19.446;2022-07-12T11:43:06;3.13;;;0.70;;
18853;SDS011;9556;49.374;19.446;2022-07-12T11:45:33;0.60;;;0.60;;
18853;SDS011;9556;49.374;19.446;2022-07-12T11:48:01;2.25;;;0.82;;
18853;SDS011;9556;49.374;19.446;2022-07-12T11:50:30;1.80;;;0.77;;
18853;SDS011;9556;49.374;19.446;2022-07-12T11:52:59;1.30;;;0.68;;
18853;SDS011;9556;49.374;19.446;2022-07-12T11:55:26;1.48;;;0.73;;
18853;SDS011;9556;49.374;19.446;2022-07-12T11:58:02;1.83;;;0.88;;
18853;SDS011;9556;49.374;19.446;2022-07-12T12:00:30;2.50;;;0.70;;
18853;SDS011;9556;49.374;19.446;2022-07-12T12:02:57;0.70;;;0.60;;
18853;SDS011;9556;49.374;19.446;2022-07-12T12:05:24;2.23;;;0.90;;
18853;SDS011;9556;49.374;19.446;2022-07-12T12:07:53;1.23;;;0.80;;
18853;SDS011;9556;49.374;19.446;2022-07-12T12:10:20;1.30;;;1.00;;
18853;SDS011;9556;49.374;19.446;2022-07-12T12:12:47;2.33;;;0.63;;
18853;SDS011;9556;49.374;19.446;2022-07-12T12:15:17;4.03;;;1.00;;
18853;SDS011;9556;49.374;19.446;2022-07-12T12:17:44;3.73;;;2.30;;
18853;SDS011;9556;49.374;19.446;2022-07-12T12:20:13;6.97;;;1.10;;
18853;SDS011;9556;49.374;19.446;2022-07-12T12:22:40;5.50;;;2.33;;
18853;SDS011;9556;49.374;19.446;2022-07-12T12:25:09;11.53;;;1.67;;
18853;SDS011;9556;49.374;19.446;2022-07-12T12:27:45;26.47;;;3.67;;
18853;SDS011;9556;49.374;19.446;2022-07-12T12:30:14;10.67;;;3.77;;
18853;SDS011;9556;49.374;19.446;2022-07-12T12:32:43;6.63;;;2.40;;
18853;SDS011;9556;49.374;19.446;2022-07-12T12:35:11;10.93;;;4.63;;
18853;SDS011;9556;49.374;19.446;2022-07-12T12:37:38;35.93;;;15.47;;
18853;SDS011;9556;49.374;19.446;2022-07-12T12:40:06;4.00;;;2.13;;
18853;SDS011;9556;49.374;19.446;2022-07-12T12:42:35;3.30;;;1.70;;
18853;SDS011;9556;49.374;19.446;2022-07-12T12:45:02;2.27;;;1.33;;
18853;SDS011;9556;49.374;19.446;2022-07-12T12:47:30;3.77;;;1.20;;
18853;SDS011;9556;49.374;19.446;2022-07-12T12:49:57;4.93;;;2.13;;
18853;SDS011;9556;49.374;19.446;2022-07-12T12:52:26;3.43;;;2.40;;
18853;SDS011;9556;49.374;19.446;2022-07-12T12:54:54;1.73;;;1.53;;
18853;SDS011;9556;49.374;19.446;2022-07-12T12:57:22;2.13;;;1.10;;
18853;SDS011;9556;49.374;19.446;2022-07-12T12:59:52;1.65;;;1.00;;
18853;SDS011;9556;49.374;19.446;2022-07-12T13:02:19;0.80;;;0.70;;
18853;SDS011;9556;49.374;19.446;2022-07-12T13:04:49;1.83;;;0.50;;
18853;SDS011;9556;49.374;19.446;2022-07-12T13:07:16;2.20;;;0.50;;
18853;SDS011;9556;49.374;19.446;2022-07-12T13:09:43;1.98;;;0.50;;
18853;SDS011;9556;49.374;19.446;2022-07-12T13:12:11;2.45;;;0.57;;
18853;SDS011;9556;49.374;19.446;2022-07-12T13:14:38;1.55;;;0.30;;
18853;SDS011;9556;49.374;19.446;2022-07-12T13:17:06;1.85;;;0.50;;
18853;SDS011;9556;49.374;19.446;2022-07-12T13:19:33;0.68;;;0.30;;
18853;SDS011;9556;49.374;19.446;2022-07-12T13:22:02;3.88;;;0.60;;
18853;SDS011;9556;49.374;19.446;2022-07-12T13:24:29;1.40;;;0.55;;
18853;SDS011;9556;49.374;19.446;2022-07-12T13:26:56;4.57;;;0.73;;
18853;SDS011;9556;49.374;19.446;2022-07-12T13:29:23;2.25;;;0.80;;
18853;SDS011;9556;49.374;19.446;2022-07-12T13:31:50;3.75;;;0.80;;
18853;SDS011;9556;49.374;19.446;2022-07-12T13:34:19;1.73;;;0.80;;
18853;SDS011;9556;49.374;19.446;2022-07-12T13:36:46;2.47;;;1.00;;
18853;SDS011;9556;49.374;19.446;2022-07-12T13:39:13;2.35;;;1.08;;
18853;SDS011;9556;49.374;19.446;2022-07-12T13:41:58;3.00;;;0.80;;
18853;SDS011;9556;49.374;19.446;2022-07-12T13:44:26;1.45;;;1.10;;
18853;SDS011;9556;49.374;19.446;2022-07-12T13:46:53;2.88;;;1.10;;
18853;SDS011;9556;49.374;19.446;2022-07-12T13:49:22;1.98;;;0.80;;
18853;SDS011;9556;49.374;19.446;2022-07-12T13:51:49;25.40;;;3.88;;
18853;SDS011;9556;49.374;19.446;2022-07-12T13:54:16;8.52;;;1.25;;
18853;SDS011;9556;49.374;19.446;2022-07-12T13:56:43;4.70;;;1.40;;
18853;SDS011;9556;49.374;19.446;2022-07-12T13:59:13;1.95;;;1.10;;
18853;SDS011;9556;49.374;19.446;2022-07-12T14:01:40;3.37;;;1.10;;
18853;SDS011;9556;49.374;19.446;2022-07-12T14:04:08;2.07;;;1.00;;
18853;SDS011;9556;49.374;19.446;2022-07-12T14:06:37;2.03;;;0.90;;
18853;SDS011;9556;49.374;19.446;2022-07-12T14:09:04;4.43;;;1.50;;
18853;SDS011;9556;49.374;19.446;2022-07-12T14:11:31;3.00;;;1.90;;
18853;SDS011;9556;49.374;19.446;2022-07-12T14:13:59;2.37;;;1.50;;
18853;SDS011;9556;49.374;19.446;2022-07-12T14:16:26;2.37;;;1.57;;
18853;SDS011;9556;49.374;19.446;2022-07-12T14:18:53;3.33;;;1.53;;
18853;SDS011;9556;49.374;19.446;2022-07-12T14:21:20;2.30;;;1.67;;
18853;SDS011;9556;49.374;19.446;2022-07-12T14:23:48;2.73;;;1.27;;
18853;SDS011;9556;49.374;19.446;2022-07-12T14:26:16;3.75;;;1.30;;
18853;SDS011;9556;49.374;19.446;2022-07-12T14:28:43;2.97;;;1.27;;
18853;SDS011;9556;49.374;19.446;2022-07-12T14:31:10;2.08;;;0.82;;
18853;SDS011;9556;49.374;19.446;2022-07-12T14:33:37;2.13;;;0.82;;
18853;SDS011;9556;49.374;19.446;2022-07-12T14:36:04;2.63;;;0.85;;
18853;SDS011;9556;49.374;19.446;2022-07-12T14:38:31;0.80;;;0.80;;
18853;SDS011;9556;49.374;19.446;2022-07-12T14:41:00;3.10;;;0.65;;
18853;SDS011;9556;49.374;19.446;2022-07-12T14:43:27;1.90;;;0.77;;
18853;SDS011;9556;49.374;19.446;2022-07-12T14:45:54;1.35;;;0.90;;
18853;SDS011;9556;49.374;19.446;2022-07-12T14:48:21;1.98;;;0.73;;
18853;SDS011;9556;49.374;19.446;2022-07-12T14:50:48;1.23;;;0.70;;
18853;SDS011;9556;49.374;19.446;2022-07-12T14:53:15;1.80;;;0.68;;
18853;SDS011;9556;49.374;19.446;2022-07-12T14:55:43;5.53;;;0.63;;
18853;SDS011;9556;49.374;19.446;2022-07-12T14:58:11;1.83;;;0.65;;
18853;SDS011;9556;49.374;19.446;2022-07-12T15:00:38;1.40;;;0.60;;
18853;SDS011;9556;49.374;19.446;2022-07-12T15:03:05;2.88;;;0.47;;
18853;SDS011;9556;49.374;19.446;2022-07-12T15:05:32;2.47;;;0.40;;